Thunderstorms From: 07-07-2020 05:00 Until: 22:59 warning for: Thunderstorms Level: Orange info button

Warning for Thunderstorms more information blitzortung!


My Other Sites:

SYKIA HOMEWEATHERSTATIONsikeaweather.alinos.eu

SYKIA METEOTEMPLATEsykiameteo.alinos.eu

alinos.eualinos.eu



Nearby METAR Reports

   
LGEL - Elefsis (hel-Afb, Greece
Distance from station: E 77 km
Updated: 07-07-2020 20:20
Partly Cloudy  
Partly Cloudy  
   Wind: varies Calm
Wind: varies Calm
Temperature: 30°C
Heat Index: 29°C
Dew Point: 15°C
Humidity: 40%
Barometer: 1004 hPa
Clouds: Partly Cloudy
Visibility: More than 10 km
Cloud details: Partly Cloudy 2500 ft
LGEL 071720Z /////KT 9999 SCT025 30/15 Q1004
LGRX - Araxos (civ/Afb), Greece
Distance from station: W 110 km
Updated: 07-07-2020 20:50
Few Clouds  
Few Clouds  
   Wind: varies 5.6 km/h
Wind: varies 5.6 km/h
Temperature: 28°C
Heat Index: 29°C
Dew Point: 20°C
Humidity: 62%
Barometer: 1006 hPa
Clouds: Few Clouds
Visibility: More than 10 km
Cloud details: Few Clouds 2000 ft
LGRX 071750Z VRB03KT 9999 FEW020 28/20 Q1006
LGAV - Athens/Elef-Ven, Greece
Distance from station: E 113 km
Updated: 07-07-2020 20:50
Partly Cloudy  
Partly Cloudy  
   Wind: ESE 7.4 km/h
Wind: ESE 7.4 km/h
Temperature: 27°C
Heat Index: 28°C
Dew Point: 19°C
Humidity: 62%
Barometer: 1006 hPa
Clouds: Partly Cloudy
Visibility: More than 10 km
Cloud details: Partly Cloudy 3000 ft
LGAV 071750Z 12004KT 070V140 9999 SCT030 27/19 Q1006 NOSIG
LGAD - Andravida (civ/A, Greece
Distance from station: W 124 km
Updated: 07-07-2020 20:50
Few Clouds  
Few Clouds  
   Wind: NW 14.8 km/h
Wind: NW 14.8 km/h
Temperature: 27°C
Heat Index: 28°C
Dew Point: 20°C
Humidity: 66%
Barometer: 1006 hPa
Clouds: Few Clouds
Visibility: More than 10 km
Cloud details: Few Clouds 2000 ft
LGAD 071750Z 32008KT 9999 FEW020 27/20 Q1006
LGKL - Kalamata (hel-Af, Greece
Distance from station: SSW 124 km
Updated: 07-07-2020 20:50
Few Clouds  
Few Clouds  
   Wind: Calm
Wind: Calm
Temperature: 26°C
Dew Point: 21°C
Humidity: 74%
Barometer: 1006 hPa
Clouds: Few Clouds
Visibility: More than 10 km
Cloud details: Few Clouds 2500 ft
LGKL 071750Z 00000KT 9999 FEW025 26/21 Q1006
LGBL - Nea Anchialos, Greece
Distance from station: N 129 km
Updated: 07-07-2020 20:50
Few Clouds  
Few Clouds  
   Wind: WNW 5.6 km/h
Wind: WNW 5.6 km/h
Temperature: 29°C
Heat Index: 29°C
Dew Point: 16°C
Humidity: 45%
Barometer: 1006 hPa
Clouds: Few Clouds
Visibility: More than 10 km
Cloud details: Few Clouds 3000 ft
LGBL 071750Z 29003KT 9999 FEW030 29/16 Q1006

Script developed by  Saratoga-weather.org Adapted for the template by  Weerstation Leuven

You find our weather info also at:

European Weather Network

Weather Underground

AWEKAS

Citizen Weather Observer Program (CWOP)

UK Metoffice

Equipment we use:

Weather-station
Davis Wireless Vantage Pro2

Davis Wireless Vantage Pro2